Terminal Aerodrome Forecast
Issued by NWS

Home | Current Version | Previous Version | Text Only | Print | Product List | Glossary On
Versions: 1 2 3 4 5 6 7 8 9 10 11 12 13 14 15
000
FTUS43 KGRB 040542
TAFRHI
TAF
KRHI 040542Z 0406/0506 36006KT 6SM BR SCT015 BKN060
      TEMPO 0406/0410 2SM -SHRA BR BKN015
     FM041000 34010G16KT P6SM SCT030 BKN070
     FM041400 35010G20KT P6SM BKN025 BKN070
     FM042200 35009KT P6SM SCT030 SCT070
     FM050300 35006KT P6SM SKC=

USA.gov is the U.S. government's official web portal to all federal, state and local government web resources and services.